Time;durP1;ratioP1;P1;durP2;ratioP2;P2;SDS_P1;SDS_P2;PMS_P1;PMS_P2;Temp;Humidity;BMP_temperature;BMP_pressure;BME280_temperature;BME280_humidity;BME280_pressure;Samples;Min_cycle;Max_cycle;Signal;HPM_P1;HPM_P2
2023/12/01 00:00:26;;;;;;;10.32;5.00;;;;;;;5.12;100.00;98559.63;6347909;28;20051;-76
2023/12/01 00:03:27;;;;;;;10.23;5.30;;;;;;;5.23;100.00;98550.28;6347868;28;20084;-76
2023/12/01 00:06:28;;;;;;;7.53;4.18;;;;;;;5.14;100.00;98557.78;6347740;28;20184;-77
2023/12/01 00:09:30;;;;;;;9.82;4.00;;;;;;;4.97;100.00;98564.81;6347667;28;20578;-79
2023/12/01 00:12:31;;;;;;;4.63;3.60;;;;;;;5.06;100.00;98571.16;6349183;28;20059;-76
2023/12/01 00:15:32;;;;;;;8.30;4.28;;;;;;;5.15;100.00;98569.78;6347590;28;20328;-75
2023/12/01 00:18:33;;;;;;;6.38;3.65;;;;;;;5.08;100.00;98581.44;6347783;28;20049;-75
2023/12/01 00:21:34;;;;;;;8.07;3.50;;;;;;;5.05;100.00;98583.28;6349162;28;20059;-76
2023/12/01 00:24:37;;;;;;;7.50;3.95;;;;;;;5.09;100.00;98586.50;6348070;28;20052;-75
2023/12/01 00:27:38;;;;;;;7.40;3.88;;;;;;;5.18;100.00;98583.34;6348362;28;20047;-79
2023/12/01 00:30:39;;;;;;;7.78;3.75;;;;;;;5.25;100.00;98588.97;6348650;28;20060;-76
2023/12/01 00:33:40;;;;;;;5.97;3.88;;;;;;;5.05;100.00;98582.44;6347821;28;20044;-79
2023/12/01 00:36:41;;;;;;;5.50;3.80;;;;;;;5.15;100.00;98588.72;6346986;28;20406;-79
2023/12/01 00:39:42;;;;;;;10.77;3.47;;;;;;;5.19;100.00;98581.59;6348395;28;20059;-79
2023/12/01 00:42:43;;;;;;;6.63;4.47;;;;;;;5.25;100.00;98584.63;6346810;28;20090;-79
2023/12/01 00:45:44;;;;;;;9.18;4.30;;;;;;;5.22;100.00;98581.41;6348061;28;20043;-79
2023/12/01 00:48:45;;;;;;;7.85;4.18;;;;;;;5.39;100.00;98583.75;6347481;28;20070;-76
2023/12/01 00:51:46;;;;;;;5.35;3.60;;;;;;;5.21;100.00;98583.16;6348673;27;20471;-79
2023/12/01 00:54:47;;;;;;;8.23;4.88;;;;;;;5.39;100.00;98588.09;6348429;28;20047;-76
2023/12/01 00:57:53;;;;;;;7.80;4.28;;;;;;;5.38;100.00;98589.03;6347765;28;20079;-79
2023/12/01 01:00:57;;;;;;;8.90;3.75;;;;;;;5.41;100.00;98597.41;6348498;28;20047;-79
2023/12/01 01:03:58;;;;;;;10.82;4.68;;;;;;;5.42;100.00;98599.09;6347334;28;20483;-76
2023/12/01 01:06:58;;;;;;;7.53;4.60;;;;;;;5.43;100.00;98594.72;6348573;28;20047;-76
2023/12/01 01:09:59;;;;;;;10.07;4.70;;;;;;;5.49;100.00;98607.28;6348568;28;20051;-76
2023/12/01 01:13:00;;;;;;;6.53;3.90;;;;;;;5.58;100.00;98606.72;6347870;28;20073;-76
2023/12/01 01:16:01;;;;;;;5.68;3.67;;;;;;;5.63;100.00;98603.81;6348261;28;20051;-76
2023/12/01 01:19:02;;;;;;;7.53;4.22;;;;;;;5.56;100.00;98593.03;6347216;28;20082;-76
2023/12/01 01:22:03;;;;;;;7.68;4.53;;;;;;;5.62;100.00;98599.56;6347251;28;20513;-80
2023/12/01 01:25:04;;;;;;;6.35;4.03;;;;;;;5.63;100.00;98598.66;6346983;28;20050;-80
2023/12/01 01:28:05;;;;;;;13.50;4.90;;;;;;;5.67;100.00;98604.47;6347167;28;20047;-77
2023/12/01 01:31:07;;;;;;;7.47;4.45;;;;;;;5.45;100.00;98627.34;6346960;28;20054;-80
2023/12/01 01:34:08;;;;;;;10.82;3.45;;;;;;;5.51;100.00;98617.53;6346742;28;20476;-80
2023/12/01 01:37:09;;;;;;;6.95;4.47;;;;;;;5.60;100.00;98615.22;6347360;28;20044;-80
2023/12/01 01:40:11;;;;;;;11.23;4.18;;;;;;;5.33;100.00;98622.09;6346920;28;20059;-79
2023/12/01 01:43:39;;;;;;;11.50;4.90;;;;;;;5.42;100.00;98614.59;6347978;28;20047;-76
2023/12/01 01:46:40;;;;;;;7.40;4.03;;;;;;;5.52;100.00;98614.00;6344417;28;20055;-77
2023/12/01 01:49:41;;;;;;;7.28;4.10;;;;;;;5.55;100.00;98604.31;6346494;28;20060;-80
2023/12/01 01:52:43;;;;;;;9.82;4.18;;;;;;;5.53;100.00;98613.91;6346531;28;20069;-80
2023/12/01 01:55:46;;;;;;;7.03;4.05;;;;;;;5.49;100.00;98609.03;6347869;28;20056;-80
2023/12/01 01:58:51;;;;;;;4.85;3.03;;;;;;;5.48;100.00;98609.97;6346651;28;20051;-80
2023/12/01 02:01:52;;;;;;;6.90;3.90;;;;;;;5.44;100.00;98601.59;6346200;28;20051;-80
2023/12/01 02:04:53;;;;;;;10.10;4.00;;;;;;;5.29;100.00;98605.94;6346446;28;20054;-80
2023/12/01 02:07:54;;;;;;;7.53;4.85;;;;;;;5.21;100.00;98610.78;6346469;28;20083;-77
2023/12/01 02:10:57;;;;;;;7.40;4.13;;;;;;;5.30;100.00;98610.19;6345479;28;20063;-76
2023/12/01 02:14:00;;;;;;;;;;;;;;;5.33;100.00;98611.75;6347773;28;20464;-80
2023/12/01 02:17:01;;;;;;;6.72;3.42;;;;;;;5.35;100.00;98612.50;6347912;28;19923;-80
2023/12/01 02:20:03;;;;;;;5.20;3.58;;;;;;;5.40;100.00;98607.88;6347173;28;20055;-80
2023/12/01 02:23:03;;;;;;;5.55;3.17;;;;;;;5.38;100.00;98628.66;6347036;28;20128;-76
2023/12/01 02:26:09;;;;;;;5.05;3.30;;;;;;;5.42;100.00;98617.19;6345676;28;20043;-77
2023/12/01 02:29:10;;;;;;;5.55;3.58;;;;;;;5.40;100.00;98610.47;6345227;28;20055;-76
2023/12/01 02:32:13;;;;;;;6.50;4.03;;;;;;;5.42;100.00;98603.44;6346506;28;20486;-76
2023/12/01 02:35:14;;;;;;;6.20;4.15;;;;;;;5.10;100.00;98614.00;6345949;28;20112;-80
2023/12/01 02:38:16;;;;;;;7.18;3.75;;;;;;;5.23;100.00;98596.00;6347292;28;20487;-77
2023/12/01 02:41:17;;;;;;;11.20;4.55;;;;;;;4.94;100.00;98608.13;6346439;28;20047;-80
2023/12/01 02:44:21;;;;;;;10.43;5.03;;;;;;;4.76;100.00;98600.56;6347294;28;20134;-80
2023/12/01 02:47:22;;;;;;;12.07;5.30;;;;;;;4.37;100.00;98591.69;6346330;28;20047;-76
2023/12/01 02:50:24;;;;;;;9.18;5.50;;;;;;;4.58;100.00;98591.34;6348825;28;20058;-80
2023/12/01 02:53:25;;;;;;;11.90;6.38;;;;;;;4.39;100.00;98596.75;6350420;28;20056;-76
2023/12/01 02:56:26;;;;;;;9.95;5.32;;;;;;;4.39;100.00;98607.91;6351899;28;20055;-79
2023/12/01 02:59:27;;;;;;;10.50;5.22;;;;;;;4.35;100.00;98613.34;6350889;28;20104;-75
2023/12/01 03:02:28;;;;;;;11.65;6.05;;;;;;;4.26;100.00;98631.94;6350345;28;20052;-79
2023/12/01 03:05:29;;;;;;;8.00;5.40;;;;;;;4.00;100.00;98624.78;6350303;28;20135;-79
2023/12/01 03:08:32;;;;;;;8.68;5.13;;;;;;;3.88;100.00;98620.31;6351221;28;20059;-80
2023/12/01 03:11:36;;;;;;;9.32;5.65;;;;;;;3.78;100.00;98622.56;6351023;28;20392;-76
2023/12/01 03:14:37;;;;;;;7.22;4.63;;;;;;;3.59;100.00;98632.25;6350652;28;20376;-80
2023/12/01 03:17:39;;;;;;;7.07;4.50;;;;;;;3.72;100.00;98638.41;6349730;28;20077;-80
2023/12/01 03:20:40;;;;;;;8.43;4.00;;;;;;;3.61;100.00;98646.72;6351274;28;20051;-77
2023/12/01 03:23:40;;;;;;;8.57;4.30;;;;;;;3.67;100.00;98642.16;6349914;28;20300;-76
2023/12/01 03:26:41;;;;;;;7.00;4.03;;;;;;;3.77;100.00;98640.75;6351606;28;20135;-76
2023/12/01 03:29:42;;;;;;;8.23;4.50;;;;;;;3.71;100.00;98649.66;6351421;28;20061;-76
2023/12/01 03:32:45;;;;;;;7.25;4.28;;;;;;;3.72;100.00;98637.56;6349708;28;20150;-76
2023/12/01 03:35:46;;;;;;;8.45;4.43;;;;;;;3.45;100.00;98635.59;6350031;28;20047;-79
2023/12/01 03:38:48;;;;;;;8.35;4.85;;;;;;;3.50;100.00;98641.34;6349188;28;20051;-80
2023/12/01 03:41:49;;;;;;;9.00;5.07;;;;;;;3.38;100.00;98629.13;6349808;28;20112;-76
2023/12/01 03:44:50;;;;;;;6.72;4.53;;;;;;;3.48;100.00;98625.13;6350625;28;20445;-76
2023/12/01 03:47:51;;;;;;;13.02;5.50;;;;;;;3.61;100.00;98630.44;6349221;28;20112;-79
2023/12/01 03:50:52;;;;;;;9.82;5.85;;;;;;;3.56;100.00;98627.25;6349973;27;20071;-76
2023/12/01 03:53:54;;;;;;;8.13;4.75;;;;;;;3.51;100.00;98631.84;6373957;27;20502;-76
2023/12/01 03:56:54;;;;;;;7.90;4.80;;;;;;;3.50;100.00;98617.28;6374612;27;20051;-77
2023/12/01 03:59:55;;;;;;;6.60;4.50;;;;;;;3.59;100.00;98616.78;6374660;27;20054;-80
2023/12/01 04:02:56;;;;;;;8.38;4.32;;;;;;;3.58;100.00;98626.28;6374763;27;20055;-76
2023/12/01 04:06:01;;;;;;;9.50;4.72;;;;;;;3.73;100.00;98628.94;6374298;27;20051;-76
2023/12/01 04:09:05;;;;;;;10.15;4.75;;;;;;;3.89;100.00;98629.75;6374431;27;20100;-76
2023/12/01 04:12:06;;;;;;;6.97;4.85;;;;;;;3.84;100.00;98619.66;6375727;27;20058;-79
2023/12/01 04:15:08;;;;;;;6.63;4.13;;;;;;;3.86;100.00;98616.16;6386807;27;20042;-76
2023/12/01 04:18:09;;;;;;;8.17;4.37;;;;;;;3.94;100.00;98619.16;6399341;27;20524;-76
2023/12/01 04:21:10;;;;;;;7.75;4.00;;;;;;;3.95;100.00;98611.28;6401508;27;20058;-76
2023/12/01 04:24:10;;;;;;;9.40;6.55;;;;;;;3.96;100.00;98607.81;6383167;27;20115;-76
2023/12/01 04:27:11;;;;;;;9.60;5.82;;;;;;;3.95;100.00;98597.56;6374181;27;20440;-76
2023/12/01 04:30:16;;;;;;;7.10;4.28;;;;;;;3.81;100.00;98596.63;6374095;27;20051;-79
2023/12/01 04:33:17;;;;;;;7.45;4.25;;;;;;;3.71;100.00;98592.88;6374595;27;20086;-79
2023/12/01 04:36:22;;;;;;;7.32;4.75;;;;;;;3.73;100.00;98608.28;6373228;27;20496;-79
2023/12/01 04:39:23;;;;;;;9.70;4.80;;;;;;;3.78;100.00;98617.41;6373364;27;20138;-75
2023/12/01 04:42:24;;;;;;;7.22;4.80;;;;;;;3.75;100.00;98627.91;6373664;27;20494;-76
2023/12/01 04:45:26;;;;;;;9.80;5.03;;;;;;;3.93;100.00;98617.47;6374370;27;20047;-79
2023/12/01 04:48:27;;;;;;;;;;;;;;;3.98;100.00;98600.81;6373927;27;20051;-76
2023/12/01 04:51:28;;;;;;;8.63;5.50;;;;;;;3.85;100.00;98602.44;6373114;27;19919;-79
2023/12/01 04:54:31;;;;;;;9.52;6.15;;;;;;;3.95;100.00;98623.38;6374089;27;20135;-79
2023/12/01 04:57:33;;;;;;;8.35;5.30;;;;;;;3.99;100.00;98638.59;6373721;27;20103;-76
2023/12/01 05:00:34;;;;;;;8.50;5.47;;;;;;;4.00;100.00;98647.19;6373999;27;20490;-76
2023/12/01 05:03:35;;;;;;;11.35;5.72;;;;;;;3.99;100.00;98633.44;6374010;27;20051;-79
2023/12/01 05:06:36;;;;;;;8.85;4.90;;;;;;;4.02;100.00;98638.44;6374303;27;20055;-79
2023/12/01 05:09:37;;;;;;;6.30;4.47;;;;;;;4.00;100.00;98653.19;6373684;27;20594;-80
2023/12/01 05:12:37;;;;;;;8.82;5.28;;;;;;;4.09;100.00;98658.75;6372438;27;20054;-80
2023/12/01 05:15:38;;;;;;;8.60;5.38;;;;;;;4.04;100.00;98657.25;6371268;27;20047;-76
2023/12/01 05:18:39;;;;;;;8.45;4.97;;;;;;;4.01;100.00;98657.41;6348246;27;20517;-76
2023/12/01 05:21:40;;;;;;;9.88;5.60;;;;;;;4.07;100.00;98658.00;6360364;27;20047;-76
2023/12/01 05:24:41;;;;;;;8.07;5.13;;;;;;;4.14;100.00;98672.19;6364382;27;20043;-76
2023/12/01 05:27:50;;;;;;;8.90;5.50;;;;;;;4.13;100.00;98662.81;6360339;27;20481;-76
2023/12/01 05:30:51;;;;;;;8.88;5.25;;;;;;;4.04;100.00;98653.84;6353822;27;20059;-76
2023/12/01 05:33:52;;;;;;;7.70;4.88;;;;;;;3.98;100.00;98638.69;6363558;27;20122;-76
2023/12/01 05:36:52;;;;;;;7.13;4.57;;;;;;;3.96;100.00;98625.06;6373784;27;20410;-76
2023/12/01 05:39:54;;;;;;;7.53;4.72;;;;;;;3.90;100.00;98646.88;6352783;27;20059;-79
2023/12/01 05:42:56;;;;;;;6.35;4.07;;;;;;;3.88;100.00;98653.03;6359972;27;20054;-79
2023/12/01 05:45:57;;;;;;;8.25;5.05;;;;;;;3.89;100.00;98659.84;6379274;27;20057;-76
2023/12/01 05:49:02;;;;;;;10.63;6.20;;;;;;;3.91;100.00;98651.13;6388942;27;20047;-79
2023/12/01 05:52:03;;;;;;;19.08;9.25;;;;;;;3.71;100.00;98659.97;6372639;27;20051;-79
2023/12/01 05:55:10;;;;;;;13.75;8.00;;;;;;;3.80;100.00;98646.53;6383293;27;20047;-79
2023/12/01 05:58:13;;;;;;;15.20;7.70;;;;;;;3.92;100.00;98639.03;6382616;27;20051;-76
2023/12/01 06:01:15;;;;;;;10.60;6.80;;;;;;;3.78;100.00;98622.56;6364720;27;20133;-76
2023/12/01 06:04:18;;;;;;;13.80;7.78;;;;;;;3.76;100.00;98611.50;6382101;27;20042;-76
2023/12/01 06:07:19;;;;;;;12.98;7.22;;;;;;;3.84;100.00;98624.81;6394696;27;20053;-79
2023/12/01 06:10:22;;;;;;;14.00;7.90;;;;;;;3.92;100.00;98639.03;6396728;27;20049;-79
2023/12/01 06:13:23;;;;;;;;;;;;;;;4.00;100.00;98636.88;6397549;27;20493;-76
2023/12/01 06:16:24;;;;;;;11.15;6.25;;;;;;;3.98;100.00;98620.63;6370040;27;20555;-76
2023/12/01 06:19:26;;;;;;;11.15;7.30;;;;;;;3.94;100.00;98622.56;6371137;28;20103;-79
2023/12/01 06:22:29;;;;;;;11.70;6.63;;;;;;;4.01;100.00;98659.97;6378035;27;20074;-79
2023/12/01 06:25:35;;;;;;;10.68;6.43;;;;;;;4.04;100.00;98656.44;6383432;27;20047;-79
2023/12/01 06:28:36;;;;;;;15.88;6.57;;;;;;;4.00;100.00;98655.75;6369078;27;20415;-75
2023/12/01 06:31:37;;;;;;;9.98;5.85;;;;;;;4.02;100.00;98672.00;6375544;27;20051;-75
2023/12/01 06:34:41;;;;;;;8.98;5.57;;;;;;;4.02;100.00;98684.91;6375783;27;20072;-75
2023/12/01 06:37:44;;;;;;;17.25;9.75;;;;;;;4.06;100.00;98677.81;6376765;27;20142;-76
2023/12/01 06:40:44;;;;;;;17.48;7.57;;;;;;;4.04;100.00;98690.81;6376486;27;20051;-75
2023/12/01 06:43:45;;;;;;;7.93;5.03;;;;;;;3.98;100.00;98667.91;6375116;27;20070;-75
2023/12/01 06:46:46;;;;;;;10.63;5.93;;;;;;;3.88;100.00;98661.59;6375253;27;20098;-76
2023/12/01 06:49:47;;;;;;;10.05;5.50;;;;;;;3.89;100.00;98654.69;6375051;27;20051;-80
2023/12/01 06:52:52;;;;;;;18.15;6.57;;;;;;;4.02;100.00;98668.59;6374832;27;20051;-80
2023/12/01 06:55:55;;;;;;;10.10;6.15;;;;;;;3.99;100.00;98679.06;6374782;27;20094;-80
2023/12/01 06:58:56;;;;;;;11.82;6.75;;;;;;;3.97;100.00;98701.53;6374981;27;20050;-80
2023/12/01 07:01:57;;;;;;;13.73;7.15;;;;;;;3.94;100.00;98692.22;6374512;27;20058;-79
2023/12/01 07:04:58;;;;;;;14.63;8.40;;;;;;;4.06;100.00;98680.41;6374502;27;20539;-80
2023/12/01 07:07:59;;;;;;;14.02;8.57;;;;;;;4.11;100.00;98674.97;6374577;27;20414;-80
2023/12/01 07:11:00;;;;;;;14.13;8.13;;;;;;;3.94;100.00;98658.69;6374382;27;20054;-76
2023/12/01 07:14:01;;;;;;;21.42;11.65;;;;;;;3.92;100.00;98663.09;6375903;27;20054;-76
2023/12/01 07:17:05;;;;;;;27.00;16.08;;;;;;;3.97;100.00;98676.56;6374325;27;20051;-80
2023/12/01 07:20:15;;;;;;;35.08;21.20;;;;;;;4.11;100.00;98691.28;6375527;27;20523;-80
2023/12/01 07:23:19;;;;;;;23.42;15.13;;;;;;;3.93;100.00;98695.75;6374063;27;20039;-80
2023/12/01 07:26:26;;;;;;;17.70;9.38;;;;;;;4.00;100.00;98703.97;6374344;27;20051;-80
2023/12/01 07:29:27;;;;;;;17.15;9.82;;;;;;;4.07;100.00;98707.03;6375255;27;20447;-77
2023/12/01 07:32:28;;;;;;;15.43;8.68;;;;;;;4.19;100.00;98691.69;6375385;27;20047;-77
2023/12/01 07:35:29;;;;;;;46.13;21.27;;;;;;;4.19;100.00;98676.19;6373754;27;20051;-76
2023/12/01 07:38:30;;;;;;;26.73;13.57;;;;;;;4.13;100.00;98673.13;6374080;27;20051;-77
2023/12/01 07:41:32;;;;;;;21.15;11.52;;;;;;;4.04;100.00;98687.41;6373603;27;20536;-77
2023/12/01 07:44:32;;;;;;;14.68;9.20;;;;;;;4.03;100.00;98678.81;6374010;27;20043;-76
2023/12/01 07:47:33;;;;;;;15.25;8.65;;;;;;;4.16;100.00;98667.78;6375121;27;20050;-76
2023/12/01 07:50:34;;;;;;;21.60;8.90;;;;;;;3.93;100.00;98666.50;6373409;27;20086;-80
2023/12/01 07:53:35;;;;;;;21.63;11.05;;;;;;;3.93;100.00;98694.88;6374615;27;20047;-80
2023/12/01 07:56:37;;;;;;;20.67;9.73;;;;;;;3.75;100.00;98702.75;6374522;27;20112;-80
2023/12/01 07:59:37;;;;;;;17.27;8.32;;;;;;;3.69;100.00;98708.22;6373247;27;20516;-80
2023/12/01 08:02:38;;;;;;;10.00;6.78;;;;;;;3.66;100.00;98715.28;6373157;27;20051;-77
2023/12/01 08:05:39;;;;;;;17.08;7.57;;;;;;;3.66;100.00;98715.28;6373423;27;20073;-77
2023/12/01 08:08:42;;;;;;;21.67;12.70;;;;;;;3.65;100.00;98726.53;6373171;27;20057;-76
2023/12/01 08:11:43;;;;;;;84.20;33.95;;;;;;;3.77;100.00;98733.63;6374850;27;20089;-79
2023/12/01 08:14:45;;;;;;;31.03;15.67;;;;;;;3.56;100.00;98726.13;6373279;27;20047;-80
2023/12/01 08:17:48;;;;;;;20.65;7.40;;;;;;;3.56;100.00;98718.38;6373098;27;20494;-80
2023/12/01 08:20:50;;;;;;;11.02;5.88;;;;;;;3.24;100.00;98720.06;6374307;27;20047;-79
2023/12/01 08:23:50;;;;;;;7.63;4.55;;;;;;;3.35;100.00;98735.81;6374004;27;20047;-76
2023/12/01 08:26:51;;;;;;;8.48;5.07;;;;;;;3.59;100.00;98730.28;6372905;27;20050;-76
2023/12/01 08:29:52;;;;;;;8.70;4.57;;;;;;;3.64;100.00;98730.84;6372744;27;20046;-80
2023/12/01 08:32:53;;;;;;;9.23;4.72;;;;;;;3.28;100.00;98747.38;6373912;27;20539;-77
2023/12/01 08:35:54;;;;;;;10.18;5.40;;;;;;;3.38;100.00;98763.19;6372727;27;20060;-77
2023/12/01 08:38:56;;;;;;;8.02;4.85;;;;;;;3.37;100.00;98738.31;6373978;27;20054;-77
2023/12/01 08:41:57;;;;;;;7.03;4.20;;;;;;;3.45;100.00;98731.00;6372208;27;20458;-80
2023/12/01 08:44:58;;;;;;;8.10;4.43;;;;;;;3.50;100.00;98736.75;6372303;27;20063;-76
2023/12/01 08:48:00;;;;;;;9.88;5.35;;;;;;;3.75;100.00;98758.69;6371723;27;20506;-80
2023/12/01 08:51:02;;;;;;;7.00;4.50;;;;;;;3.73;100.00;98745.84;6371734;27;20057;-76
2023/12/01 08:54:03;;;;;;;7.80;4.67;;;;;;;3.80;100.00;98743.75;6373226;27;20083;-80
2023/12/01 08:57:04;;;;;;;7.13;4.40;;;;;;;3.49;100.00;98754.88;6372100;27;20047;-80
2023/12/01 09:00:06;;;;;;;6.75;4.35;;;;;;;3.55;100.00;98752.00;6373222;27;20134;-80
2023/12/01 09:03:07;;;;;;;10.18;4.55;;;;;;;3.59;100.00;98753.50;6373206;27;20079;-77
2023/12/01 09:06:09;;;;;;;7.43;4.22;;;;;;;3.55;100.00;98770.03;6371735;27;20407;-80
2023/12/01 09:09:12;;;;;;;9.00;4.45;;;;;;;3.39;100.00;98777.75;6371616;27;20129;-80
2023/12/01 09:12:13;;;;;;;8.52;4.40;;;;;;;3.53;100.00;98784.75;6371602;27;20135;-80
2023/12/01 09:15:14;;;;;;;7.43;3.70;;;;;;;3.52;100.00;98776.19;6371617;27;20050;-80
2023/12/01 09:18:17;;;;;;;6.85;4.30;;;;;;;3.66;100.00;98772.88;6371529;27;20049;-80
2023/12/01 09:21:22;;;;;;;6.60;4.20;;;;;;;3.43;100.00;98779.25;6372889;27;20096;-79
2023/12/01 09:24:23;;;;;;;11.27;5.63;;;;;;;3.19;100.00;98789.06;6371853;27;20126;-77
2023/12/01 09:27:24;;;;;;;10.45;5.55;;;;;;;3.20;100.00;98786.41;6371724;27;20118;-77
2023/12/01 09:30:25;;;;;;;12.30;4.90;;;;;;;3.42;100.00;98773.25;6372488;27;20100;-79
2023/12/01 09:33:30;;;;;;;8.00;3.33;;;;;;;3.42;100.00;98760.38;6371412;27;20047;-79
2023/12/01 09:36:30;;;;;;;6.68;3.55;;;;;;;3.53;100.00;98743.50;6371402;27;20092;-79
2023/12/01 09:39:31;;;;;;;8.15;3.53;;;;;;;3.57;100.00;98751.00;6372714;27;20051;-79
2023/12/01 09:42:38;;;;;;;3.88;3.15;;;;;;;3.65;100.00;98750.59;6371324;27;20104;-79
2023/12/01 09:45:38;;;;;;;6.53;3.22;;;;;;;3.51;100.00;98755.66;6371148;27;20391;-79
2023/12/01 09:48:42;;;;;;;5.20;3.30;;;;;;;3.50;100.00;98735.91;6372409;27;20139;-76
2023/12/01 09:51:43;;;;;;;5.45;3.03;;;;;;;3.50;100.00;98721.28;6372448;27;20047;-76
2023/12/01 09:54:44;;;;;;;10.15;4.57;;;;;;;3.63;100.00;98731.78;6370869;28;20425;-81
2023/12/01 09:57:45;;;;;;;11.40;6.40;;;;;;;3.28;100.00;98729.31;6370996;28;20047;-76
2023/12/01 10:00:48;;;;;;;12.88;8.50;;;;;;;3.37;100.00;98730.56;6375134;27;20047;-76
2023/12/01 10:03:49;;;;;;;12.23;7.90;;;;;;;3.44;100.00;98719.03;6376079;27;20168;-76
2023/12/01 10:06:50;;;;;;;21.73;10.98;;;;;;;3.44;100.00;98721.63;6376472;27;20047;-76
2023/12/01 10:09:51;;;;;;;13.02;8.15;;;;;;;3.64;100.00;98712.78;6376048;27;20047;-77
2023/12/01 10:12:53;;;;;;;7.67;5.43;;;;;;;3.67;100.00;98711.81;6376150;27;20047;-80
2023/12/01 10:15:59;;;;;;;8.73;5.25;;;;;;;3.84;100.00;98702.22;6377256;27;20051;-76
2023/12/01 10:19:02;;;;;;;10.35;4.50;;;;;;;3.88;100.00;98686.59;6377401;27;20054;-76
2023/12/01 10:22:06;;;;;;;7.70;4.80;;;;;;;3.93;100.00;98687.16;6377167;27;20054;-80
2023/12/01 10:25:12;;;;;;;10.02;6.22;;;;;;;3.91;100.00;98683.81;6377190;27;20052;-80
2023/12/01 10:28:13;;;;;;;11.02;5.80;;;;;;;4.01;100.00;98678.06;6377069;27;20142;-80
2023/12/01 10:31:15;;;;;;;15.18;5.68;;;;;;;4.06;100.00;98675.25;6376892;27;20395;-79
2023/12/01 10:34:16;;;;;;;7.87;5.07;;;;;;;3.98;100.00;98673.06;6375636;27;20097;-79
2023/12/01 10:37:17;;;;;;;5.53;3.88;;;;;;;3.92;100.00;98682.91;6375472;27;20506;-79
2023/12/01 10:40:18;;;;;;;5.93;3.92;;;;;;;3.95;100.00;98670.66;6375412;27;20058;-79
2023/12/01 10:43:24;;;;;;;6.10;4.00;;;;;;;3.98;100.00;98667.09;6376275;27;20047;-79
2023/12/01 10:46:29;;;;;;;8.57;4.65;;;;;;;3.98;100.00;98662.75;6375456;27;20061;-79
2023/12/01 10:49:31;;;;;;;5.35;3.63;;;;;;;3.71;100.00;98661.72;6375204;27;20051;-76
2023/12/01 10:52:36;;;;;;;10.20;6.00;;;;;;;3.74;100.00;98664.13;6376067;27;20410;-76
2023/12/01 10:55:37;;;;;;;7.07;4.22;;;;;;;3.79;100.00;98670.69;6376298;27;20047;-76
2023/12/01 10:58:39;;;;;;;6.82;4.00;;;;;;;3.92;100.00;98664.84;6375232;27;20054;-80
2023/12/01 11:01:41;;;;;;;4.68;3.05;;;;;;;3.88;100.00;98666.75;6374913;27;20356;-76
2023/12/01 11:04:46;;;;;;;6.75;3.90;;;;;;;4.01;100.00;98677.22;6376116;27;20047;-80
2023/12/01 11:07:53;;;;;;;4.80;3.47;;;;;;;4.04;100.00;98672.75;6374946;27;20051;-80
2023/12/01 11:11:19;;;;;;;6.38;4.00;;;;;;;4.02;100.00;98660.84;6375001;27;20527;-80
2023/12/01 11:14:21;;;;;;;4.63;2.80;;;;;;;3.82;100.00;98659.38;6374335;27;20043;-80
2023/12/01 11:17:23;;;;;;;4.10;2.95;;;;;;;4.02;100.00;98651.34;6374565;27;20047;-80
2023/12/01 11:20:34;;;;;;;7.30;4.18;;;;;;;4.26;100.00;98645.69;6375632;27;20051;-80
2023/12/01 11:23:35;;;;;;;9.60;5.35;;;;;;;4.21;100.00;98630.47;6374453;27;20047;-80
2023/12/01 11:26:36;;;;;;;5.80;3.80;;;;;;;4.18;100.00;98627.22;6375294;27;20055;-76
2023/12/01 11:29:57;;;;;;;7.68;3.35;;;;;;;4.24;100.00;98617.41;6374147;27;20514;-79
2023/12/01 11:32:58;;;;;;;5.72;3.65;;;;;;;4.24;100.00;98612.22;6375206;27;20058;-76
2023/12/01 11:36:34;;;;;;;6.90;3.78;;;;;;;4.14;100.00;98621.44;6375676;27;20047;-79
2023/12/01 11:39:34;;;;;;;5.28;3.35;;;;;;;4.30;100.00;98611.03;6373968;27;20074;-80
2023/12/01 11:42:35;;;;;;;6.88;4.28;;;;;;;4.10;100.00;98619.09;6373842;27;20388;-80
2023/12/01 11:45:39;;;;;;;8.50;4.22;;;;;;;4.19;100.00;98614.22;6373784;27;20047;-77
2023/12/01 11:48:43;;;;;;;7.15;4.75;;;;;;;4.16;100.00;98629.91;6373789;27;20418;-77
2023/12/01 11:51:45;;;;;;;7.28;4.35;;;;;;;4.14;100.00;98630.91;6373714;27;20122;-80
2023/12/01 11:54:48;;;;;;;5.00;3.97;;;;;;;4.27;100.00;98624.13;6374785;27;20055;-77
2023/12/01 11:57:53;;;;;;;5.65;4.25;;;;;;;4.16;100.00;98621.31;6373562;27;20195;-80
2023/12/01 12:00:54;;;;;;;8.13;4.32;;;;;;;4.10;100.00;98606.19;6374666;27;20055;-80
2023/12/01 12:03:57;;;;;;;7.22;4.70;;;;;;;4.12;100.00;98614.66;6373526;27;20447;-80
2023/12/01 12:07:02;;;;;;;8.98;5.00;;;;;;;4.17;100.00;98605.75;6373276;27;20043;-77
2023/12/01 12:10:03;;;;;;;6.95;4.60;;;;;;;4.34;100.00;98609.09;6373349;27;20509;-80
2023/12/01 12:13:12;;;;;;;5.53;3.38;;;;;;;4.15;100.00;98580.94;6373222;27;20043;-79
2023/12/01 12:16:13;;;;;;;4.18;2.75;;;;;;;4.18;100.00;98593.66;6374491;27;20047;-81
2023/12/01 12:19:17;;;;;;;4.05;2.60;;;;;;;4.10;100.00;98595.84;6374176;27;20047;-78
2023/12/01 12:22:19;;;;;;;5.32;2.60;;;;;;;4.25;100.00;98582.06;6372459;27;20051;-78
2023/12/01 12:25:20;;;;;;;5.10;3.00;;;;;;;4.36;100.00;98609.84;6372541;27;20039;-78
2023/12/01 12:28:22;;;;;;;;;;;;;;;4.23;100.00;98599.41;6374764;27;20134;-75
2023/12/01 12:31:26;;;;;;;3.30;2.50;;;;;;;4.28;100.00;98597.38;6372878;27;19919;-78
2023/12/01 12:34:27;;;;;;;4.45;3.03;;;;;;;4.30;100.00;98599.88;6366815;27;20379;-81
2023/12/01 12:37:28;;;;;;;5.65;3.58;;;;;;;4.15;100.00;98584.34;6353600;27;20066;-81
2023/12/01 12:40:35;;;;;;;7.18;5.13;;;;;;;4.18;100.00;98584.19;6365139;27;20051;-81
2023/12/01 12:43:36;;;;;;;9.57;4.95;;;;;;;4.21;100.00;98590.91;6372267;27;20047;-81
2023/12/01 12:46:37;;;;;;;6.68;4.90;;;;;;;4.37;100.00;98585.69;6372368;27;20498;-81
2023/12/01 12:49:40;;;;;;;8.73;5.13;;;;;;;4.41;100.00;98575.09;6373649;27;20047;-78
2023/12/01 12:52:41;;;;;;;8.57;5.70;;;;;;;4.32;100.00;98585.13;6372084;27;20108;-78
2023/12/01 12:55:42;;;;;;;13.05;6.20;;;;;;;4.35;100.00;98582.38;6372300;27;20043;-78
2023/12/01 12:58:43;;;;;;;7.22;4.97;;;;;;;4.33;100.00;98585.03;6372061;27;20047;-78
2023/12/01 13:01:44;;;;;;;6.97;3.97;;;;;;;4.18;100.00;98585.91;6373410;27;20047;-78
2023/12/01 13:04:45;;;;;;;4.95;3.65;;;;;;;4.21;100.00;98590.91;6371923;27;20471;-78
2023/12/01 13:07:47;;;;;;;7.18;4.60;;;;;;;4.12;100.00;98586.25;6373253;27;20047;-78
2023/12/01 13:10:47;;;;;;;8.55;5.63;;;;;;;4.37;100.00;98577.94;6371876;27;20130;-78
2023/12/01 13:13:48;;;;;;;6.60;3.83;;;;;;;4.14;100.00;98584.44;6372781;27;20047;-78
2023/12/01 13:16:49;;;;;;;5.57;4.03;;;;;;;4.31;100.00;98586.88;6371525;27;20047;-78
2023/12/01 13:19:50;;;;;;;8.65;4.93;;;;;;;4.21;100.00;98583.16;6372676;27;20490;-78
2023/12/01 13:22:51;;;;;;;8.30;4.60;;;;;;;4.17;100.00;98598.00;6372815;27;20047;-78
2023/12/01 13:25:52;;;;;;;6.50;4.20;;;;;;;4.21;100.00;98606.41;6371374;27;20043;-80
2023/12/01 13:28:53;;;;;;;8.13;4.38;;;;;;;4.32;100.00;98604.00;6371531;27;20483;-80
2023/12/01 13:31:54;;;;;;;5.28;3.75;;;;;;;4.16;100.00;98591.19;6372671;27;20059;-81
2023/12/01 13:34:55;;;;;;;5.85;4.00;;;;;;;4.15;100.00;98605.00;6366754;27;20427;-81
2023/12/01 13:37:56;;;;;;;6.90;4.55;;;;;;;4.18;100.00;98589.34;6372634;27;20445;-77
2023/12/01 13:40:56;;;;;;;11.50;6.13;;;;;;;4.15;100.00;98594.69;6370224;27;20062;-78
2023/12/01 13:43:58;;;;;;;15.00;8.95;;;;;;;4.00;100.00;98573.16;6395309;27;20089;-78
2023/12/01 13:46:59;;;;;;;10.27;6.10;;;;;;;4.12;100.00;98575.94;6396584;27;20043;-79
2023/12/01 13:50:01;;;;;;;8.43;5.77;;;;;;;4.06;100.00;98573.72;6396574;27;20050;-81
2023/12/01 13:53:02;;;;;;;10.47;6.40;;;;;;;3.88;100.00;98579.03;6376502;27;20324;-81
2023/12/01 13:56:05;;;;;;;10.25;6.03;;;;;;;4.00;100.00;98575.75;6345184;28;20047;-78
2023/12/01 13:59:06;;;;;;;13.32;7.57;;;;;;;4.09;100.00;98582.13;6362838;28;20464;-78
2023/12/01 14:02:07;;;;;;;14.57;8.38;;;;;;;4.17;100.00;98566.19;6364599;27;20600;-81
2023/12/01 14:05:08;;;;;;;26.90;7.57;;;;;;;4.28;100.00;98576.72;6358177;28;20503;-81
2023/12/01 14:08:11;;;;;;;11.73;6.95;;;;;;;4.24;100.00;98558.00;6346730;28;20053;-81
2023/12/01 14:11:13;;;;;;;8.70;6.18;;;;;;;4.37;100.00;98570.19;6356388;28;20137;-78
2023/12/01 14:14:14;;;;;;;12.60;7.03;;;;;;;4.23;100.00;98578.75;6357276;27;20050;-78